Time;durP1;ratioP1;P1;durP2;ratioP2;P2;SDS_P1;SDS_P2;PMS_P1;PMS_P2;Temp;Humidity;BMP_temperature;BMP_pressure;BME280_temperature;BME280_humidity;BME280_pressure;Samples;Min_cycle;Max_cycle;Signal;HPM_P1;HPM_P2
2023/04/30 00:00:28;;;;;;;22.40;13.48;;;8.70;99.90;;;;;;4994883;28;20031;-76
2023/04/30 00:02:54;;;;;;;24.27;14.82;;;8.70;99.90;;;;;;4994426;28;20549;-76
2023/04/30 00:05:20;;;;;;;22.30;13.02;;;8.70;99.90;;;;;;4994395;28;20037;-76
2023/04/30 00:07:45;;;;;;;24.13;13.48;;;8.70;99.90;;;;;;4993176;28;20093;-76
2023/04/30 00:10:11;;;;;;;28.90;14.27;;;8.70;99.90;;;;;;4992920;28;20041;-76
2023/04/30 00:12:37;;;;;;;28.35;14.15;;;8.70;99.90;;;;;;4993797;28;20041;-76
2023/04/30 00:15:03;;;;;;;25.50;13.45;;;8.70;99.90;;;;;;4976394;28;20469;-76
2023/04/30 00:17:28;;;;;;;24.45;14.20;;;8.70;99.90;;;;;;4993571;28;20113;-76
2023/04/30 00:19:54;;;;;;;28.15;14.57;;;8.70;99.90;;;;;;4994300;28;20023;-76
2023/04/30 00:22:20;;;;;;;27.33;14.68;;;8.70;99.90;;;;;;4993729;28;20034;-76
2023/04/30 00:24:46;;;;;;;24.80;13.05;;;8.70;99.90;;;;;;4994319;28;20230;-76
2023/04/30 00:27:11;;;;;;;24.52;14.77;;;8.70;99.90;;;;;;4993561;28;20018;-75
2023/04/30 00:29:37;;;;;;;29.83;14.27;;;8.70;99.90;;;;;;4994298;28;20074;-76
2023/04/30 00:32:03;;;;;;;29.35;14.70;;;8.70;99.90;;;;;;4989177;28;20025;-75
2023/04/30 00:34:28;;;;;;;32.03;15.15;;;8.60;99.90;;;;;;4991020;28;20094;-75
2023/04/30 00:36:54;;;;;;;27.27;15.38;;;8.60;99.90;;;;;;4994252;28;20037;-76
2023/04/30 00:39:20;;;;;;;29.67;15.98;;;8.60;99.90;;;;;;4994170;28;20026;-76
2023/04/30 00:41:45;;;;;;;26.45;15.95;;;8.60;99.90;;;;;;4992875;28;20041;-76
2023/04/30 00:44:11;;;;;;;30.50;15.73;;;8.60;99.90;;;;;;4993970;28;20028;-76
2023/04/30 00:46:36;;;;;;;28.75;14.90;;;8.50;99.90;;;;;;4993918;28;20051;-76
2023/04/30 00:49:03;;;;;;;29.60;15.73;;;8.50;99.90;;;;;;4993791;28;20045;-76
2023/04/30 00:51:31;;;;;;;31.70;14.88;;;8.50;99.90;;;;;;4993696;28;20034;-76
2023/04/30 00:54:00;;;;;;;28.08;15.00;;;8.40;99.90;;;;;;4994137;28;20029;-76
2023/04/30 00:56:26;;;;;;;28.17;14.98;;;8.40;99.90;;;;;;4993481;28;20613;-76
2023/04/30 00:58:55;;;;;;;26.13;14.95;;;8.40;99.90;;;;;;4993619;28;20021;-76
2023/04/30 01:01:23;;;;;;;27.85;14.98;;;8.40;99.90;;;;;;4993824;28;20026;-76
2023/04/30 01:03:49;;;;;;;28.95;14.02;;;8.40;99.90;;;;;;4986929;28;20059;-76
2023/04/30 01:06:15;;;;;;;27.20;15.48;;;8.40;99.90;;;;;;4970002;28;20037;-76
2023/04/30 01:08:40;;;;;;;30.45;15.23;;;8.40;99.90;;;;;;4981606;28;20019;-75
2023/04/30 01:11:21;;;;;;;28.30;15.60;;;8.30;99.90;;;;;;4980966;28;20030;-75
2023/04/30 01:13:57;;;;;;;28.38;15.38;;;8.40;99.90;;;;;;4993636;28;20105;-75
2023/04/30 01:16:27;;;;;;;28.80;15.82;;;8.30;99.90;;;;;;4993644;28;20410;-76
2023/04/30 01:19:40;;;;;;;28.23;15.27;;;8.30;99.90;;;;;;4976261;28;20045;-75
2023/04/30 01:22:10;;;;;;;26.20;14.88;;;8.30;99.90;;;;;;4991111;28;20476;-75
2023/04/30 01:24:56;;;;;;;29.60;15.45;;;8.30;99.90;;;;;;4993208;28;20080;-75
2023/04/30 01:27:44;;;;;;;;;;;8.30;99.90;;;;;;4993327;28;20047;-75
2023/04/30 01:30:12;;;;;;;29.65;16.02;;;8.30;99.90;;;;;;4992852;28;19909;-75
2023/04/30 01:32:37;;;;;;;33.70;16.95;;;8.20;99.90;;;;;;4993333;28;20492;-75
2023/04/30 01:35:03;;;;;;;31.92;16.40;;;8.20;99.90;;;;;;4989704;28;20027;-75
2023/04/30 01:37:43;;;;;;;29.88;16.55;;;8.20;99.90;;;;;;4986917;28;20034;-75
2023/04/30 01:40:35;;;;;;;31.98;16.20;;;8.20;99.90;;;;;;4993014;28;20122;-75
2023/04/30 01:43:36;;;;;;;33.08;16.42;;;8.20;99.90;;;;;;4993340;28;20478;-75
2023/04/30 01:46:17;;;;;;;30.65;16.65;;;8.20;99.90;;;;;;4969516;28;20050;-75
2023/04/30 01:48:53;;;;;;;31.15;16.52;;;8.20;99.90;;;;;;4993076;28;20034;-75
2023/04/30 01:51:42;;;;;;;31.92;16.38;;;8.10;99.90;;;;;;4971824;28;20034;-75
2023/04/30 01:54:37;;;;;;;28.15;15.63;;;8.10;99.90;;;;;;4993032;28;20034;-75
2023/04/30 01:57:05;;;;;;;27.73;15.50;;;8.10;99.90;;;;;;4973820;28;20050;-75
2023/04/30 01:59:34;;;;;;;32.53;16.85;;;8.10;99.90;;;;;;4990868;28;20026;-75
2023/04/30 02:02:00;;;;;;;28.63;16.95;;;8.00;99.90;;;;;;4992558;28;20081;-75
2023/04/30 02:04:26;;;;;;;31.85;16.05;;;8.00;99.90;;;;;;4992524;28;20698;-75
2023/04/30 02:06:52;;;;;;;31.48;16.70;;;8.00;99.90;;;;;;4992679;28;20042;-76
2023/04/30 02:09:17;;;;;;;32.60;16.42;;;8.00;99.90;;;;;;4992401;28;20520;-76
2023/04/30 02:11:43;;;;;;;30.80;17.00;;;8.00;99.90;;;;;;4992342;28;20027;-76
2023/04/30 02:14:08;;;;;;;30.65;16.17;;;8.00;99.90;;;;;;4992732;28;20030;-76
2023/04/30 02:16:34;;;;;;;29.73;17.27;;;7.90;99.90;;;;;;4992577;28;20057;-76
2023/04/30 02:19:00;;;;;;;31.48;18.50;;;7.90;99.90;;;;;;4992461;28;20023;-75
2023/04/30 02:21:27;;;;;;;34.70;17.10;;;7.90;99.90;;;;;;4992482;28;20444;-76
2023/04/30 02:23:52;;;;;;;32.38;17.88;;;7.90;99.90;;;;;;4992195;28;20015;-76
2023/04/30 02:26:18;;;;;;;35.00;18.05;;;7.90;99.90;;;;;;4992627;28;20536;-75
2023/04/30 02:28:44;;;;;;;31.77;18.48;;;7.90;99.90;;;;;;4992519;28;20030;-75
2023/04/30 02:31:10;;;;;;;38.80;19.23;;;7.90;99.90;;;;;;4992266;28;20030;-76
2023/04/30 02:33:35;;;;;;;37.58;20.42;;;7.90;99.90;;;;;;4992286;28;20026;-75
2023/04/30 02:36:01;;;;;;;35.75;19.08;;;7.90;99.90;;;;;;4992556;28;20034;-75
2023/04/30 02:38:27;;;;;;;35.60;19.67;;;7.90;99.90;;;;;;4992029;28;20018;-75
2023/04/30 02:40:52;;;;;;;36.70;18.95;;;7.90;99.90;;;;;;4992120;28;20158;-75
2023/04/30 02:43:18;;;;;;;36.33;19.38;;;7.90;99.90;;;;;;4991883;28;20028;-75
2023/04/30 02:45:43;;;;;;;33.38;19.67;;;7.80;99.90;;;;;;4992106;28;20022;-75
2023/04/30 02:48:09;;;;;;;35.05;19.10;;;7.80;99.90;;;;;;4991636;28;20661;-75
2023/04/30 02:50:35;;;;;;;31.95;18.23;;;7.80;99.90;;;;;;4992017;28;20030;-75
2023/04/30 02:53:00;;;;;;;33.30;18.95;;;7.80;99.90;;;;;;4990578;28;20385;-76
2023/04/30 02:55:26;;;;;;;36.35;19.35;;;7.80;99.90;;;;;;4991925;28;20051;-75
2023/04/30 02:57:51;;;;;;;34.22;19.27;;;7.80;99.90;;;;;;4991910;28;20023;-75
2023/04/30 03:00:17;;;;;;;37.72;18.77;;;7.80;99.90;;;;;;4974107;28;20027;-76
2023/04/30 03:02:43;;;;;;;32.97;19.38;;;7.70;99.90;;;;;;4991632;28;20417;-76
2023/04/30 03:05:09;;;;;;;34.45;19.77;;;7.80;99.90;;;;;;4991776;28;20023;-75
2023/04/30 03:07:35;;;;;;;33.17;20.15;;;7.80;99.90;;;;;;4988270;28;20077;-77
2023/04/30 03:10:00;;;;;;;36.72;20.35;;;7.70;99.90;;;;;;4991512;28;20421;-75
2023/04/30 03:12:26;;;;;;;38.53;19.67;;;7.70;99.90;;;;;;4990455;28;20153;-75
2023/04/30 03:14:52;;;;;;;36.03;20.40;;;7.70;99.90;;;;;;4991070;28;20105;-75
2023/04/30 03:17:17;;;;;;;37.47;20.42;;;7.70;99.90;;;;;;4991718;28;20042;-75
2023/04/30 03:19:43;;;;;;;36.13;19.50;;;7.70;99.90;;;;;;4991612;28;20022;-76
2023/04/30 03:22:10;;;;;;;37.20;20.88;;;7.60;99.90;;;;;;4991914;28;20472;-76
2023/04/30 03:24:36;;;;;;;36.40;20.15;;;7.60;99.90;;;;;;4991494;28;20033;-76
2023/04/30 03:27:02;;;;;;;36.92;20.45;;;7.60;99.90;;;;;;4991729;28;20023;-76
2023/04/30 03:29:28;;;;;;;36.30;19.60;;;7.60;99.90;;;;;;4991576;28;20097;-76
2023/04/30 03:31:53;;;;;;;37.50;20.65;;;7.60;99.90;;;;;;4991677;28;20065;-76
2023/04/30 03:34:19;;;;;;;34.88;19.95;;;7.60;99.90;;;;;;4991397;28;20048;-76
2023/04/30 03:36:44;;;;;;;37.17;20.38;;;7.60;99.90;;;;;;4991656;28;20027;-76
2023/04/30 03:39:10;;;;;;;35.08;20.05;;;7.60;99.90;;;;;;4991354;28;20026;-76
2023/04/30 03:41:36;;;;;;;37.55;20.50;;;7.60;99.90;;;;;;4974030;28;20035;-76
2023/04/30 03:44:01;;;;;;;34.88;20.77;;;7.60;99.90;;;;;;4991736;28;20034;-76
2023/04/30 03:46:27;;;;;;;34.92;20.23;;;7.60;99.90;;;;;;4991438;28;20026;-76
2023/04/30 03:48:53;;;;;;;35.33;20.88;;;7.60;99.90;;;;;;4991584;28;20023;-76
2023/04/30 03:51:19;;;;;;;37.53;20.45;;;7.50;99.90;;;;;;4991736;28;20019;-76
2023/04/30 03:53:45;;;;;;;39.13;20.08;;;7.50;99.90;;;;;;4991442;28;20030;-76
2023/04/30 03:56:11;;;;;;;34.40;19.52;;;7.50;99.90;;;;;;4991051;28;20433;-76
2023/04/30 03:58:37;;;;;;;38.45;19.45;;;7.50;99.90;;;;;;4991487;28;20678;-76
2023/04/30 04:01:03;;;;;;;37.15;20.10;;;7.50;99.90;;;;;;4992576;28;20034;-77
2023/04/30 04:03:29;;;;;;;42.17;20.95;;;7.50;99.90;;;;;;4995002;28;20061;-76
2023/04/30 04:05:54;;;;;;;38.42;21.58;;;7.50;99.90;;;;;;4994954;28;20704;-76
2023/04/30 04:08:20;;;;;;;38.90;22.02;;;7.50;99.90;;;;;;4994699;28;20034;-76
2023/04/30 04:10:46;;;;;;;38.30;20.95;;;7.50;99.90;;;;;;4994599;28;20689;-76
2023/04/30 04:13:12;;;;;;;37.78;22.08;;;7.50;99.90;;;;;;4994908;28;20010;-76
2023/04/30 04:15:37;;;;;;;41.42;21.45;;;7.50;99.90;;;;;;4994587;28;20108;-76
2023/04/30 04:18:03;;;;;;;40.53;21.23;;;7.50;99.90;;;;;;4977207;28;20022;-76
2023/04/30 04:20:29;;;;;;;36.38;20.80;;;7.50;99.90;;;;;;4994576;28;20038;-76
2023/04/30 04:22:55;;;;;;;38.05;21.63;;;7.40;99.90;;;;;;4994642;28;20018;-76
2023/04/30 04:25:23;;;;;;;35.38;20.63;;;7.40;99.90;;;;;;4994512;28;20023;-76
2023/04/30 04:27:50;;;;;;;34.35;19.60;;;7.40;99.90;;;;;;4994763;28;20453;-76
2023/04/30 04:30:16;;;;;;;34.92;19.92;;;7.40;99.90;;;;;;4994341;28;20029;-76
2023/04/30 04:32:45;;;;;;;33.65;19.05;;;7.40;99.90;;;;;;4994544;28;20022;-75
2023/04/30 04:35:17;;;;;;;34.22;19.73;;;7.40;99.90;;;;;;4990275;28;20470;-76
2023/04/30 04:37:42;;;;;;;34.00;19.02;;;7.40;99.90;;;;;;4973083;28;20031;-76
2023/04/30 04:40:10;;;;;;;33.05;18.63;;;7.40;99.90;;;;;;4994367;28;20065;-76
2023/04/30 04:42:37;;;;;;;30.35;18.30;;;7.50;99.90;;;;;;4994581;28;20033;-76
2023/04/30 04:45:06;;;;;;;32.65;17.98;;;7.50;99.90;;;;;;4994183;28;20049;-76
2023/04/30 04:47:32;;;;;;;27.35;15.63;;;7.50;99.90;;;;;;4994084;28;20042;-76
2023/04/30 04:49:58;;;;;;;29.38;16.60;;;7.50;99.90;;;;;;4993972;28;20056;-76
2023/04/30 04:52:23;;;;;;;28.17;16.60;;;7.50;99.90;;;;;;4994145;28;20376;-76
2023/04/30 04:54:49;;;;;;;28.85;16.08;;;7.50;99.90;;;;;;4993678;28;20672;-75
2023/04/30 04:57:15;;;;;;;26.48;14.85;;;7.60;99.90;;;;;;4994328;28;20052;-75
2023/04/30 04:59:40;;;;;;;30.02;15.38;;;7.60;99.90;;;;;;4993003;28;20015;-77
2023/04/30 05:02:06;;;;;;;28.05;15.45;;;7.60;99.90;;;;;;4993701;28;20081;-75
2023/04/30 05:04:31;;;;;;;26.75;15.48;;;7.60;99.90;;;;;;4989292;28;20533;-76
2023/04/30 05:06:57;;;;;;;25.58;14.75;;;7.60;99.90;;;;;;4986109;28;20026;-76
2023/04/30 05:09:22;;;;;;;26.50;14.65;;;7.70;99.90;;;;;;4993803;28;20366;-76
2023/04/30 05:11:49;;;;;;;25.30;14.00;;;7.70;99.90;;;;;;4993450;28;20034;-76
2023/04/30 05:14:15;;;;;;;26.63;14.23;;;7.70;99.90;;;;;;4993438;28;20045;-76
2023/04/30 05:16:40;;;;;;;29.25;15.02;;;7.70;99.90;;;;;;4993881;28;20023;-76
2023/04/30 05:19:08;;;;;;;27.27;14.60;;;7.80;99.90;;;;;;4988827;28;20366;-75
2023/04/30 05:21:34;;;;;;;24.30;14.65;;;7.80;99.90;;;;;;4986345;28;20060;-76
2023/04/30 05:24:00;;;;;;;27.98;14.05;;;7.80;99.90;;;;;;4993331;28;20025;-76
2023/04/30 05:26:25;;;;;;;26.20;14.32;;;7.90;99.90;;;;;;4976053;28;20417;-76
2023/04/30 05:28:51;;;;;;;22.90;12.95;;;7.90;99.90;;;;;;4993149;28;20026;-76
2023/04/30 05:31:17;;;;;;;26.30;14.65;;;8.00;99.90;;;;;;4975901;28;20030;-76
2023/04/30 05:33:43;;;;;;;23.92;13.90;;;8.00;99.90;;;;;;4975062;28;20030;-76
2023/04/30 05:36:10;;;;;;;26.48;13.55;;;8.00;99.90;;;;;;4993262;28;20030;-75
2023/04/30 05:38:35;;;;;;;21.88;12.80;;;8.00;99.90;;;;;;4992978;28;20023;-76
2023/04/30 05:41:01;;;;;;;22.08;12.95;;;8.10;99.90;;;;;;4993043;28;20033;-75
2023/04/30 05:43:27;;;;;;;20.45;12.27;;;8.10;99.90;;;;;;4992940;28;20034;-75
2023/04/30 05:45:52;;;;;;;20.90;12.57;;;8.20;99.90;;;;;;4992897;28;20028;-75
2023/04/30 05:48:18;;;;;;;21.80;11.75;;;8.20;99.90;;;;;;4985588;28;20135;-76
2023/04/30 05:50:43;;;;;;;21.38;12.35;;;8.30;99.90;;;;;;4992962;28;20519;-76
2023/04/30 05:53:09;;;;;;;22.15;12.30;;;8.30;99.90;;;;;;4992879;28;20066;-76
2023/04/30 05:55:35;;;;;;;20.35;11.38;;;8.30;99.90;;;;;;4992536;28;20026;-76
2023/04/30 05:58:00;;;;;;;18.98;12.18;;;8.40;99.90;;;;;;4962775;28;20500;-75
2023/04/30 06:00:26;;;;;;;18.13;11.85;;;8.40;99.90;;;;;;4992750;28;20064;-76
2023/04/30 06:02:52;;;;;;;19.90;11.75;;;8.40;99.90;;;;;;4992345;28;20039;-76
2023/04/30 06:05:18;;;;;;;18.20;11.00;;;8.50;99.90;;;;;;4993312;28;20031;-75
2023/04/30 06:07:43;;;;;;;19.25;11.27;;;8.50;99.90;;;;;;4992521;28;20026;-76
2023/04/30 06:10:10;;;;;;;20.98;11.38;;;8.60;99.90;;;;;;4992262;28;20093;-76
2023/04/30 06:12:36;;;;;;;17.70;11.07;;;8.60;99.90;;;;;;4992626;28;20453;-75
2023/04/30 06:15:02;;;;;;;16.30;10.73;;;8.70;99.90;;;;;;4992708;28;20026;-76
2023/04/30 06:17:27;;;;;;;19.17;11.75;;;8.70;99.90;;;;;;4992518;28;20046;-76
2023/04/30 06:19:53;;;;;;;17.60;11.10;;;8.70;99.90;;;;;;4992452;28;20026;-75
2023/04/30 06:22:19;;;;;;;19.05;11.43;;;8.80;99.90;;;;;;4992370;28;20491;-76
2023/04/30 06:24:44;;;;;;;20.60;11.15;;;8.80;99.90;;;;;;4991537;28;20101;-76
2023/04/30 06:27:10;;;;;;;16.92;10.52;;;8.90;99.90;;;;;;4992279;28;20026;-76
2023/04/30 06:29:38;;;;;;;17.77;10.98;;;8.90;99.90;;;;;;4992196;28;20033;-76
2023/04/30 06:32:04;;;;;;;17.77;10.70;;;8.90;99.90;;;;;;4992074;28;20050;-75
2023/04/30 06:34:31;;;;;;;18.45;10.48;;;8.90;99.90;;;;;;4992917;28;20030;-76
2023/04/30 06:36:56;;;;;;;17.45;10.48;;;9.00;99.90;;;;;;4992059;28;20093;-76
2023/04/30 06:39:22;;;;;;;22.15;10.80;;;9.00;99.90;;;;;;4991682;28;20101;-77
2023/04/30 06:41:48;;;;;;;17.80;11.00;;;9.10;99.90;;;;;;4992125;28;20041;-76
2023/04/30 06:44:13;;;;;;;15.93;10.77;;;9.10;99.90;;;;;;4991782;28;20018;-76
2023/04/30 06:46:39;;;;;;;19.90;10.40;;;9.10;99.90;;;;;;4992028;28;20018;-76
2023/04/30 06:49:05;;;;;;;16.17;9.85;;;9.20;99.90;;;;;;4991708;28;20033;-75
2023/04/30 06:51:31;;;;;;;18.70;11.20;;;9.30;99.90;;;;;;4991812;28;20030;-75
2023/04/30 06:53:56;;;;;;;18.75;10.88;;;9.30;99.90;;;;;;4991804;28;20014;-75
2023/04/30 06:56:22;;;;;;;17.92;10.48;;;9.40;99.90;;;;;;4991423;28;20045;-76
2023/04/30 06:58:49;;;;;;;16.35;10.27;;;9.50;99.90;;;;;;4991896;28;20050;-76
2023/04/30 07:01:14;;;;;;;18.38;10.90;;;9.50;99.90;;;;;;4991825;28;20025;-76
2023/04/30 07:03:40;;;;;;;17.00;10.82;;;9.60;99.90;;;;;;4986570;28;20034;-76
2023/04/30 07:06:05;;;;;;;18.73;10.45;;;9.70;99.90;;;;;;4972114;28;20033;-77
2023/04/30 07:08:31;;;;;;;15.18;10.43;;;9.80;99.90;;;;;;4991745;28;20026;-76
2023/04/30 07:10:57;;;;;;;19.08;11.13;;;9.90;99.90;;;;;;4991706;28;20066;-76
2023/04/30 07:13:22;;;;;;;17.73;10.55;;;10.00;99.90;;;;;;4991831;28;20022;-76
2023/04/30 07:15:48;;;;;;;16.48;10.48;;;10.10;99.90;;;;;;4991256;28;20019;-76
2023/04/30 07:18:14;;;;;;;14.43;10.57;;;10.10;99.90;;;;;;4991101;28;20022;-76
2023/04/30 07:20:40;;;;;;;20.33;11.60;;;10.20;99.90;;;;;;4992319;28;20368;-76
2023/04/30 07:23:05;;;;;;;17.75;10.90;;;10.40;99.90;;;;;;4986890;28;20113;-77
2023/04/30 07:25:31;;;;;;;16.45;10.40;;;10.50;99.90;;;;;;4988266;28;20663;-76
2023/04/30 07:27:56;;;;;;;18.77;10.32;;;10.60;99.90;;;;;;4986375;28;20022;-78
2023/04/30 07:30:22;;;;;;;16.33;10.10;;;10.80;99.90;;;;;;4991248;28;20117;-76
2023/04/30 07:32:49;;;;;;;19.45;10.80;;;10.80;99.90;;;;;;4990929;28;20034;-77
2023/04/30 07:35:14;;;;;;;18.75;11.05;;;11.00;99.90;;;;;;4991900;28;20042;-76
2023/04/30 07:37:40;;;;;;;15.15;9.55;;;11.10;99.90;;;;;;4995473;28;20022;-77
2023/04/30 07:40:11;;;;;;;18.10;9.57;;;11.20;99.90;;;;;;4995188;28;20022;-77
2023/04/30 07:42:41;;;;;;;14.55;9.52;;;11.30;99.90;;;;;;4994816;28;20030;-76
2023/04/30 07:45:07;;;;;;;17.23;9.60;;;11.50;99.90;;;;;;4995656;28;20057;-76
2023/04/30 07:47:32;;;;;;;14.95;9.93;;;11.60;99.90;;;;;;4995834;28;20050;-76
2023/04/30 07:49:58;;;;;;;15.82;8.95;;;11.80;99.90;;;;;;4995378;28;20033;-76
2023/04/30 07:52:23;;;;;;;14.32;8.63;;;11.90;99.90;;;;;;4995475;28;20034;-76
2023/04/30 07:54:49;;;;;;;13.27;8.65;;;12.00;99.90;;;;;;4995065;28;20076;-76
2023/04/30 07:57:15;;;;;;;12.98;8.43;;;12.20;99.90;;;;;;4995443;28;20057;-76
2023/04/30 07:59:40;;;;;;;15.13;8.43;;;12.30;99.90;;;;;;4996909;28;20023;-77
2023/04/30 08:02:08;;;;;;;12.73;8.30;;;12.50;99.90;;;;;;4994981;28;20019;-76
2023/04/30 08:04:33;;;;;;;13.02;7.85;;;12.60;99.90;;;;;;4984296;28;20037;-76
2023/04/30 08:07:00;;;;;;;11.60;8.05;;;12.80;99.90;;;;;;4994885;28;20026;-76
2023/04/30 08:09:26;;;;;;;12.45;8.05;;;12.90;99.90;;;;;;4995059;28;20046;-76
2023/04/30 08:11:52;;;;;;;11.43;7.72;;;13.10;99.90;;;;;;4977477;28;20630;-76
2023/04/30 08:14:18;;;;;;;12.60;7.53;;;13.20;99.90;;;;;;4994500;28;20069;-76
2023/04/30 08:16:43;;;;;;;12.13;7.93;;;13.30;99.90;;;;;;4994601;28;20023;-76
2023/04/30 08:19:09;;;;;;;12.30;7.53;;;13.50;99.90;;;;;;4994778;28;20527;-75
2023/04/30 08:21:35;;;;;;;10.00;6.82;;;13.60;99.90;;;;;;4994479;28;20088;-76
2023/04/30 08:24:01;;;;;;;10.15;7.40;;;13.80;99.90;;;;;;4977424;28;20081;-76
2023/04/30 08:26:26;;;;;;;12.00;7.82;;;13.90;99.90;;;;;;4994463;28;20409;-76
2023/04/30 08:28:52;;;;;;;10.88;7.45;;;14.00;99.90;;;;;;4994578;28;20018;-77
2023/04/30 08:31:18;;;;;;;12.63;8.20;;;14.20;99.90;;;;;;4994494;28;20022;-76
2023/04/30 08:33:43;;;;;;;11.82;7.85;;;14.20;99.90;;;;;;4994187;28;20023;-76
2023/04/30 08:36:09;;;;;;;10.70;7.32;;;14.30;99.90;;;;;;4994248;28;20026;-76
2023/04/30 08:38:35;;;;;;;11.93;7.85;;;14.30;99.90;;;;;;4989703;28;20030;-76
2023/04/30 08:41:24;;;;;;;11.25;7.50;;;14.30;99.90;;;;;;4991711;28;20021;-77
2023/04/30 08:43:52;;;;;;;11.52;6.55;;;14.40;99.90;;;;;;4988654;28;20134;-77
2023/04/30 08:46:19;;;;;;;9.82;5.95;;;14.50;99.90;;;;;;4993684;28;20026;-77
2023/04/30 08:48:47;;;;;;;9.63;6.40;;;14.60;99.90;;;;;;4994466;28;20030;-77
2023/04/30 08:51:13;;;;;;;10.10;6.35;;;14.80;99.90;;;;;;4976715;28;20026;-77
2023/04/30 08:53:40;;;;;;;9.02;6.10;;;14.90;99.90;;;;;;4994306;28;20026;-77
2023/04/30 08:56:09;;;;;;;9.13;6.38;;;15.00;99.90;;;;;;4993993;28;20092;-77
2023/04/30 08:58:34;;;;;;;8.23;6.18;;;15.10;99.90;;;;;;5002675;28;20414;-76
2023/04/30 09:01:01;;;;;;;6.70;5.60;;;15.30;99.90;;;;;;4993524;28;20080;-77
2023/04/30 09:03:27;;;;;;;12.50;6.70;;;15.40;99.90;;;;;;4995359;28;20026;-77
2023/04/30 09:05:54;;;;;;;9.75;6.55;;;15.60;99.90;;;;;;4993957;28;20019;-77
2023/04/30 09:08:43;;;;;;;10.85;6.32;;;15.70;99.90;;;;;;4993812;28;20018;-77
2023/04/30 09:11:29;;;;;;;9.55;6.55;;;15.90;99.90;;;;;;4993804;28;20029;-76
2023/04/30 09:14:00;;;;;;;8.88;6.05;;;16.10;99.90;;;;;;4993553;28;20018;-76
2023/04/30 09:16:28;;;;;;;15.57;6.65;;;16.20;99.90;;;;;;4993742;28;20084;-76
2023/04/30 09:18:55;;;;;;;19.27;7.90;;;16.40;99.90;;;;;;4993067;28;20014;-76
2023/04/30 09:21:34;;;;;;;9.85;5.82;;;16.50;99.90;;;;;;4993623;28;20026;-76
2023/04/30 09:24:02;;;;;;;8.38;5.97;;;16.60;99.90;;;;;;4993423;28;20018;-77
2023/04/30 09:26:33;;;;;;;8.93;6.07;;;16.60;99.90;;;;;;4994287;28;20176;-78
2023/04/30 09:28:59;;;;;;;13.38;6.38;;;16.70;99.90;;;;;;4999053;28;20022;-79
2023/04/30 09:31:26;;;;;;;9.25;5.22;;;16.80;99.90;;;;;;5003777;28;20051;-79
2023/04/30 09:33:52;;;;;;;6.72;4.85;;;16.90;99.90;;;;;;5000029;28;20046;-79
2023/04/30 09:36:19;;;;;;;72.93;16.30;;;17.10;99.90;;;;;;4999793;28;20027;-78
2023/04/30 09:38:44;;;;;;;240.52;38.55;;;17.20;99.90;;;;;;4988994;28;20102;-77
2023/04/30 09:41:27;;;;;;;14.13;6.55;;;17.30;99.90;;;;;;4995347;28;20106;-76
2023/04/30 09:43:54;;;;;;;10.23;5.20;;;17.50;99.90;;;;;;4994728;28;20088;-76
2023/04/30 09:46:21;;;;;;;6.97;4.88;;;17.70;99.90;;;;;;4992280;28;20022;-79
2023/04/30 09:48:56;;;;;;;8.57;4.85;;;17.80;99.90;;;;;;4997924;28;20033;-80
2023/04/30 09:51:22;;;;;;;7.95;5.90;;;17.90;99.90;;;;;;4997436;28;20117;-78
2023/04/30 09:53:50;;;;;;;7.30;5.55;;;18.00;99.90;;;;;;4997516;28;20050;-78
2023/04/30 09:56:20;;;;;;;9.70;5.07;;;18.10;99.90;;;;;;4995538;28;20153;-78
2023/04/30 09:58:53;;;;;;;7.70;5.00;;;18.20;99.90;;;;;;4997472;28;20031;-83
2023/04/30 10:01:20;;;;;;;8.20;5.28;;;18.20;99.90;;;;;;4997742;28;20359;-82
2023/04/30 10:03:47;;;;;;;7.80;5.00;;;18.30;99.90;;;;;;4998778;28;20033;-80
2023/04/30 10:06:15;;;;;;;6.78;4.80;;;18.30;99.90;;;;;;4998373;28;20026;-80
2023/04/30 10:08:43;;;;;;;7.22;4.72;;;18.40;99.90;;;;;;4997589;28;20651;-79
2023/04/30 10:11:15;;;;;;;6.30;4.45;;;18.50;99.90;;;;;;4995943;28;20659;-78
2023/04/30 10:13:54;;;;;;;5.60;4.45;;;18.60;99.90;;;;;;4993776;28;20571;-78
2023/04/30 10:16:47;;;;;;;6.60;4.78;;;18.70;99.90;;;;;;4983917;28;20489;-78
2023/04/30 10:19:17;;;;;;;5.45;4.00;;;18.80;99.90;;;;;;4994896;28;20030;-78
2023/04/30 10:21:45;;;;;;;5.40;4.38;;;18.80;99.90;;;;;;4998255;28;20461;-78
2023/04/30 10:24:18;;;;;;;8.07;5.40;;;18.80;99.90;;;;;;4995555;28;20026;-76
2023/04/30 10:26:45;;;;;;;6.80;5.32;;;18.90;99.90;;;;;;4988145;28;20034;-77
2023/04/30 10:29:13;;;;;;;9.30;6.63;;;18.90;99.90;;;;;;4977786;28;20481;-78
2023/04/30 10:31:40;;;;;;;7.40;5.43;;;19.00;99.90;;;;;;4996842;28;20029;-79
2023/04/30 10:34:08;;;;;;;6.70;4.88;;;18.90;99.90;;;;;;4995555;28;20022;-78
2023/04/30 10:36:53;;;;;;;6.20;4.72;;;18.90;99.90;;;;;;4992642;28;20462;-76
2023/04/30 10:39:22;;;;;;;6.80;5.22;;;18.90;99.90;;;;;;4993592;28;20038;-78
2023/04/30 10:41:48;;;;;;;6.68;4.55;;;18.90;99.90;;;;;;4999227;28;20135;-78
2023/04/30 10:44:20;;;;;;;6.70;4.97;;;19.00;99.90;;;;;;5001835;28;20018;-79
2023/04/30 10:46:45;;;;;;;6.97;5.03;;;19.10;99.90;;;;;;4997147;28;20029;-77
2023/04/30 10:49:13;;;;;;;7.15;5.07;;;19.10;99.90;;;;;;4997604;28;20440;-78
2023/04/30 10:51:53;;;;;;;7.18;5.20;;;19.20;99.90;;;;;;4981039;28;20033;-77
2023/04/30 10:54:29;;;;;;;5.95;4.50;;;19.30;99.90;;;;;;4983981;28;20022;-77
2023/04/30 10:57:18;;;;;;;6.40;4.88;;;19.30;99.90;;;;;;4998295;28;20062;-78
2023/04/30 11:00:06;;;;;;;6.20;4.40;;;19.40;99.90;;;;;;4997957;28;20037;-79
2023/04/30 11:02:41;;;;;;;7.25;4.40;;;19.50;99.90;;;;;;5000263;28;20031;-78
2023/04/30 11:05:06;;;;;;;5.53;4.45;;;19.70;99.90;;;;;;4979324;28;20046;-78
2023/04/30 11:07:33;;;;;;;7.38;4.20;;;19.80;99.90;;;;;;4988134;28;20022;-80
2023/04/30 11:10:01;;;;;;;6.95;5.00;;;20.00;99.90;;;;;;4977523;28;20068;-79
2023/04/30 11:12:27;;;;;;;4.20;3.80;;;20.10;99.90;;;;;;4980820;28;20502;-77
2023/04/30 11:15:06;;;;;;;6.20;4.22;;;20.20;99.90;;;;;;4998535;28;20054;-77
2023/04/30 11:17:32;;;;;;;7.95;4.90;;;20.30;99.90;;;;;;4998840;28;20031;-78
2023/04/30 11:19:59;;;;;;;8.20;4.82;;;20.30;99.90;;;;;;4988317;28;20096;-76
2023/04/30 11:22:26;;;;;;;7.60;4.85;;;20.20;99.90;;;;;;4995477;28;20030;-76
2023/04/30 11:24:53;;;;;;;6.47;5.15;;;20.20;99.90;;;;;;4995897;28;20022;-77
2023/04/30 11:27:27;;;;;;;6.63;4.50;;;20.20;99.90;;;;;;4997616;28;20046;-79
2023/04/30 11:29:54;;;;;;;8.32;4.82;;;20.30;99.90;;;;;;4999782;28;20112;-79
2023/04/30 11:32:22;;;;;;;5.35;4.20;;;20.40;99.90;;;;;;4999125;28;20041;-78
2023/04/30 11:34:49;;;;;;;4.90;4.22;;;20.40;99.90;;;;;;4996137;28;20026;-76
2023/04/30 11:37:35;;;;;;;4.20;3.78;;;20.40;99.90;;;;;;4994074;28;20077;-76
2023/04/30 11:40:06;;;;;;;7.68;4.40;;;20.50;99.80;;;;;;4993525;28;20520;-75
2023/04/30 11:42:35;;;;;;;5.78;4.57;;;20.60;99.90;;;;;;4968412;28;20035;-75
2023/04/30 11:45:09;;;;;;;6.05;4.40;;;20.60;99.40;;;;;;4994213;28;20022;-76
2023/04/30 11:47:45;;;;;;;5.53;3.80;;;20.70;99.10;;;;;;4995660;28;20033;-80
2023/04/30 11:50:18;;;;;;;4.35;3.58;;;20.70;97.50;;;;;;4997683;28;20030;-78
2023/04/30 11:52:53;;;;;;;6.97;3.95;;;20.80;97.60;;;;;;4997515;28;20109;-77
2023/04/30 11:55:22;;;;;;;5.10;3.53;;;20.80;97.10;;;;;;4992976;28;20026;-76
2023/04/30 11:57:52;;;;;;;5.18;3.30;;;20.80;96.90;;;;;;4989092;28;20047;-78
2023/04/30 12:00:19;;;;;;;4.43;3.47;;;20.90;96.60;;;;;;4990561;28;20021;-77
2023/04/30 12:02:47;;;;;;;3.95;2.90;;;20.90;95.90;;;;;;4978490;28;20093;-77
2023/04/30 12:05:22;;;;;;;3.75;3.40;;;21.00;95.80;;;;;;4996031;28;20077;-78
2023/04/30 12:08:07;;;;;;;4.30;3.22;;;21.00;95.30;;;;;;4980059;28;20393;-77
2023/04/30 12:10:34;;;;;;;7.00;4.00;;;21.10;94.60;;;;;;4996455;28;20701;-77
2023/04/30 12:12:59;;;;;;;5.28;3.92;;;21.00;94.60;;;;;;4996038;28;20035;-76
2023/04/30 12:15:26;;;;;;;5.55;4.10;;;21.10;95.00;;;;;;4984522;28;20141;-77
2023/04/30 12:17:53;;;;;;;6.32;4.30;;;21.20;95.20;;;;;;4996695;28;20717;-77
2023/04/30 12:20:20;;;;;;;5.38;4.28;;;21.30;95.00;;;;;;4996717;28;20022;-78
2023/04/30 12:22:46;;;;;;;5.57;4.00;;;21.40;95.00;;;;;;4978185;28;20030;-77
2023/04/30 12:25:20;;;;;;;6.65;4.47;;;21.40;94.10;;;;;;4993949;28;20033;-77
2023/04/30 12:27:47;;;;;;;6.78;4.38;;;21.30;94.30;;;;;;4994897;28;20023;-77
2023/04/30 12:30:13;;;;;;;4.95;3.75;;;21.30;94.50;;;;;;4994712;28;20508;-78
2023/04/30 12:32:44;;;;;;;4.15;3.33;;;21.30;94.50;;;;;;4996137;28;20409;-76
2023/04/30 12:35:18;;;;;;;4.03;2.60;;;21.40;93.60;;;;;;4995906;28;20533;-77
2023/04/30 12:37:45;;;;;;;5.13;3.30;;;21.40;93.10;;;;;;4998599;28;20010;-77
2023/04/30 12:40:14;;;;;;;2.72;2.20;;;21.40;93.10;;;;;;4999172;28;20022;-79
2023/04/30 12:42:42;;;;;;;2.88;2.17;;;21.40;93.00;;;;;;4997818;28;20030;-79
2023/04/30 12:45:09;;;;;;;2.90;2.60;;;21.50;91.50;;;;;;4998771;28;20022;-80